sensor_id;sensor_type;location;lat;lon;timestamp;temperature;humidity
52867;DHT22;38739;53.324;6.862;2023-05-07T00:01:42;11.30;99.90
52867;DHT22;38739;53.324;6.862;2023-05-07T00:04:08;11.30;99.90
52867;DHT22;38739;53.324;6.862;2023-05-07T00:06:34;11.30;99.90
52867;DHT22;38739;53.324;6.862;2023-05-07T00:09:00;11.30;99.90
52867;DHT22;38739;53.324;6.862;2023-05-07T00:11:27;11.30;99.90
52867;DHT22;38739;53.324;6.862;2023-05-07T00:13:52;11.30;99.90
52867;DHT22;38739;53.324;6.862;2023-05-07T00:16:18;11.30;99.90
52867;DHT22;38739;53.324;6.862;2023-05-07T00:18:44;11.30;99.90
52867;DHT22;38739;53.324;6.862;2023-05-07T00:21:10;11.30;99.90
52867;DHT22;38739;53.324;6.862;2023-05-07T00:23:36;11.30;99.90
52867;DHT22;38739;53.324;6.862;2023-05-07T00:26:03;11.30;99.90
52867;DHT22;38739;53.324;6.862;2023-05-07T00:28:29;11.30;99.90
52867;DHT22;38739;53.324;6.862;2023-05-07T00:30:54;11.30;99.90
52867;DHT22;38739;53.324;6.862;2023-05-07T00:33:20;11.30;99.90
52867;DHT22;38739;53.324;6.862;2023-05-07T00:35:47;11.30;99.90
52867;DHT22;38739;53.324;6.862;2023-05-07T00:38:13;11.30;99.90
52867;DHT22;38739;53.324;6.862;2023-05-07T00:40:39;11.40;99.90
52867;DHT22;38739;53.324;6.862;2023-05-07T00:43:06;11.40;99.90
52867;DHT22;38739;53.324;6.862;2023-05-07T00:45:33;11.30;99.90
52867;DHT22;38739;53.324;6.862;2023-05-07T00:48:00;11.40;99.90
52867;DHT22;38739;53.324;6.862;2023-05-07T00:50:28;11.40;99.90
52867;DHT22;38739;53.324;6.862;2023-05-07T00:52:54;11.40;99.90
52867;DHT22;38739;53.324;6.862;2023-05-07T00:55:21;11.40;99.90
52867;DHT22;38739;53.324;6.862;2023-05-07T00:57:47;11.40;99.90
52867;DHT22;38739;53.324;6.862;2023-05-07T01:00:13;11.40;99.90
52867;DHT22;38739;53.324;6.862;2023-05-07T01:02:39;11.40;99.90
52867;DHT22;38739;53.324;6.862;2023-05-07T01:05:06;11.40;99.90
52867;DHT22;38739;53.324;6.862;2023-05-07T01:07:34;11.40;99.90
52867;DHT22;38739;53.324;6.862;2023-05-07T01:10:00;11.40;99.90
52867;DHT22;38739;53.324;6.862;2023-05-07T01:12:28;11.40;99.90
52867;DHT22;38739;53.324;6.862;2023-05-07T01:14:53;11.40;99.90
52867;DHT22;38739;53.324;6.862;2023-05-07T01:17:19;11.40;99.90
52867;DHT22;38739;53.324;6.862;2023-05-07T01:19:45;11.40;99.90
52867;DHT22;38739;53.324;6.862;2023-05-07T01:22:15;11.40;99.90
52867;DHT22;38739;53.324;6.862;2023-05-07T01:24:41;11.30;99.90
52867;DHT22;38739;53.324;6.862;2023-05-07T01:27:08;11.40;99.90
52867;DHT22;38739;53.324;6.862;2023-05-07T01:29:33;11.30;99.90
52867;DHT22;38739;53.324;6.862;2023-05-07T01:32:00;11.40;99.90
52867;DHT22;38739;53.324;6.862;2023-05-07T01:34:28;11.30;99.90
52867;DHT22;38739;53.324;6.862;2023-05-07T01:36:56;11.30;99.90
52867;DHT22;38739;53.324;6.862;2023-05-07T01:39:27;11.30;99.90
52867;DHT22;38739;53.324;6.862;2023-05-07T01:41:55;11.30;99.90
52867;DHT22;38739;53.324;6.862;2023-05-07T01:44:22;11.30;99.90
52867;DHT22;38739;53.324;6.862;2023-05-07T01:46:48;11.30;99.90
52867;DHT22;38739;53.324;6.862;2023-05-07T01:49:15;11.30;99.90
52867;DHT22;38739;53.324;6.862;2023-05-07T01:51:41;11.30;99.90
52867;DHT22;38739;53.324;6.862;2023-05-07T01:54:08;11.30;99.90
52867;DHT22;38739;53.324;6.862;2023-05-07T01:56:34;11.30;99.90
52867;DHT22;38739;53.324;6.862;2023-05-07T01:58:59;11.30;99.90
52867;DHT22;38739;53.324;6.862;2023-05-07T02:01:25;11.30;99.90
52867;DHT22;38739;53.324;6.862;2023-05-07T02:03:51;11.30;99.90
52867;DHT22;38739;53.324;6.862;2023-05-07T02:06:17;11.30;99.90
52867;DHT22;38739;53.324;6.862;2023-05-07T02:08:44;11.20;99.90
52867;DHT22;38739;53.324;6.862;2023-05-07T02:11:09;11.20;99.90
52867;DHT22;38739;53.324;6.862;2023-05-07T02:13:35;11.20;99.90
52867;DHT22;38739;53.324;6.862;2023-05-07T02:16:01;11.20;99.90
52867;DHT22;38739;53.324;6.862;2023-05-07T02:18:28;11.20;99.90
52867;DHT22;38739;53.324;6.862;2023-05-07T02:20:53;11.10;99.90
52867;DHT22;38739;53.324;6.862;2023-05-07T02:23:19;11.10;99.90
52867;DHT22;38739;53.324;6.862;2023-05-07T02:25:44;11.10;99.90
52867;DHT22;38739;53.324;6.862;2023-05-07T02:28:11;11.10;99.90
52867;DHT22;38739;53.324;6.862;2023-05-07T02:30:37;11.10;99.90
52867;DHT22;38739;53.324;6.862;2023-05-07T02:33:03;11.10;99.90
52867;DHT22;38739;53.324;6.862;2023-05-07T02:35:29;11.00;99.90
52867;DHT22;38739;53.324;6.862;2023-05-07T02:37:54;11.00;99.90
52867;DHT22;38739;53.324;6.862;2023-05-07T02:40:20;11.00;99.90
52867;DHT22;38739;53.324;6.862;2023-05-07T02:42:47;11.00;99.90
52867;DHT22;38739;53.324;6.862;2023-05-07T02:45:12;10.90;99.90
52867;DHT22;38739;53.324;6.862;2023-05-07T02:47:40;10.90;99.90
52867;DHT22;38739;53.324;6.862;2023-05-07T02:50:06;11.00;99.90
52867;DHT22;38739;53.324;6.862;2023-05-07T02:52:32;10.90;99.90
52867;DHT22;38739;53.324;6.862;2023-05-07T02:54:57;10.90;99.90
52867;DHT22;38739;53.324;6.862;2023-05-07T02:57:23;10.90;99.90
52867;DHT22;38739;53.324;6.862;2023-05-07T02:59:49;10.80;99.90
52867;DHT22;38739;53.324;6.862;2023-05-07T03:02:14;10.80;99.90
52867;DHT22;38739;53.324;6.862;2023-05-07T03:04:40;10.80;99.90
52867;DHT22;38739;53.324;6.862;2023-05-07T03:07:06;10.80;99.90
52867;DHT22;38739;53.324;6.862;2023-05-07T03:09:32;10.70;99.90
52867;DHT22;38739;53.324;6.862;2023-05-07T03:11:57;10.70;99.90
52867;DHT22;38739;53.324;6.862;2023-05-07T03:14:23;10.70;99.90
52867;DHT22;38739;53.324;6.862;2023-05-07T03:16:49;10.70;99.90
52867;DHT22;38739;53.324;6.862;2023-05-07T03:19:15;10.70;99.90
52867;DHT22;38739;53.324;6.862;2023-05-07T03:21:41;10.70;99.90
52867;DHT22;38739;53.324;6.862;2023-05-07T03:24:07;10.70;99.90
52867;DHT22;38739;53.324;6.862;2023-05-07T03:26:33;10.70;99.90
52867;DHT22;38739;53.324;6.862;2023-05-07T03:28:58;10.60;99.90
52867;DHT22;38739;53.324;6.862;2023-05-07T03:31:24;10.60;99.90
52867;DHT22;38739;53.324;6.862;2023-05-07T03:33:55;10.60;99.90
52867;DHT22;38739;53.324;6.862;2023-05-07T03:36:22;10.60;99.90
52867;DHT22;38739;53.324;6.862;2023-05-07T03:38:48;10.60;99.90
52867;DHT22;38739;53.324;6.862;2023-05-07T03:41:14;10.60;99.90
52867;DHT22;38739;53.324;6.862;2023-05-07T03:43:40;10.60;99.90
52867;DHT22;38739;53.324;6.862;2023-05-07T03:46:05;10.50;99.90
52867;DHT22;38739;53.324;6.862;2023-05-07T03:48:31;10.50;99.90
52867;DHT22;38739;53.324;6.862;2023-05-07T03:50:58;10.50;99.90
52867;DHT22;38739;53.324;6.862;2023-05-07T03:53:24;10.50;99.90
52867;DHT22;38739;53.324;6.862;2023-05-07T03:55:50;10.50;99.90
52867;DHT22;38739;53.324;6.862;2023-05-07T03:58:16;10.50;99.90
52867;DHT22;38739;53.324;6.862;2023-05-07T04:00:42;10.50;99.90
52867;DHT22;38739;53.324;6.862;2023-05-07T04:03:07;10.40;99.90
52867;DHT22;38739;53.324;6.862;2023-05-07T04:05:33;10.40;99.90
52867;DHT22;38739;53.324;6.862;2023-05-07T04:07:59;10.40;99.90
52867;DHT22;38739;53.324;6.862;2023-05-07T04:10:25;10.40;99.90
52867;DHT22;38739;53.324;6.862;2023-05-07T04:12:51;10.30;99.90
52867;DHT22;38739;53.324;6.862;2023-05-07T04:15:17;10.40;99.90
52867;DHT22;38739;53.324;6.862;2023-05-07T04:17:43;10.30;99.90
52867;DHT22;38739;53.324;6.862;2023-05-07T04:20:10;10.30;99.90
52867;DHT22;38739;53.324;6.862;2023-05-07T04:22:36;10.30;99.90
52867;DHT22;38739;53.324;6.862;2023-05-07T04:25:03;10.30;99.90
52867;DHT22;38739;53.324;6.862;2023-05-07T04:27:29;10.30;99.90
52867;DHT22;38739;53.324;6.862;2023-05-07T04:29:55;10.20;99.90
52867;DHT22;38739;53.324;6.862;2023-05-07T04:32:23;10.20;99.90
52867;DHT22;38739;53.324;6.862;2023-05-07T04:34:50;10.20;99.90
52867;DHT22;38739;53.324;6.862;2023-05-07T04:37:16;10.20;99.90
52867;DHT22;38739;53.324;6.862;2023-05-07T04:39:42;10.20;99.90
52867;DHT22;38739;53.324;6.862;2023-05-07T04:42:08;10.20;99.90
52867;DHT22;38739;53.324;6.862;2023-05-07T04:44:34;10.20;99.90
52867;DHT22;38739;53.324;6.862;2023-05-07T04:47:02;10.10;99.90
52867;DHT22;38739;53.324;6.862;2023-05-07T04:49:28;10.20;99.90
52867;DHT22;38739;53.324;6.862;2023-05-07T04:51:53;10.20;99.90
52867;DHT22;38739;53.324;6.862;2023-05-07T04:54:19;10.10;99.90
52867;DHT22;38739;53.324;6.862;2023-05-07T04:56:44;10.10;99.90
52867;DHT22;38739;53.324;6.862;2023-05-07T04:59:10;10.10;99.90
52867;DHT22;38739;53.324;6.862;2023-05-07T05:01:36;10.10;99.90
52867;DHT22;38739;53.324;6.862;2023-05-07T05:04:02;10.10;99.90
52867;DHT22;38739;53.324;6.862;2023-05-07T05:06:28;10.20;99.90
52867;DHT22;38739;53.324;6.862;2023-05-07T05:08:54;10.20;99.90
52867;DHT22;38739;53.324;6.862;2023-05-07T05:11:20;10.10;99.90
52867;DHT22;38739;53.324;6.862;2023-05-07T05:13:46;10.10;99.90
52867;DHT22;38739;53.324;6.862;2023-05-07T05:16:14;10.10;99.90
52867;DHT22;38739;53.324;6.862;2023-05-07T05:18:40;10.10;99.90
52867;DHT22;38739;53.324;6.862;2023-05-07T05:21:05;10.10;99.90
52867;DHT22;38739;53.324;6.862;2023-05-07T05:23:31;10.10;99.90
52867;DHT22;38739;53.324;6.862;2023-05-07T05:25:57;10.10;99.90
52867;DHT22;38739;53.324;6.862;2023-05-07T05:28:23;10.10;99.90
52867;DHT22;38739;53.324;6.862;2023-05-07T05:30:49;10.10;99.90
52867;DHT22;38739;53.324;6.862;2023-05-07T05:33:15;10.10;99.90
52867;DHT22;38739;53.324;6.862;2023-05-07T05:35:42;10.10;99.90
52867;DHT22;38739;53.324;6.862;2023-05-07T05:38:07;10.10;99.90
52867;DHT22;38739;53.324;6.862;2023-05-07T05:40:33;10.10;99.90
52867;DHT22;38739;53.324;6.862;2023-05-07T05:42:59;10.10;99.90
52867;DHT22;38739;53.324;6.862;2023-05-07T05:45:25;10.10;99.90
52867;DHT22;38739;53.324;6.862;2023-05-07T05:47:51;10.10;99.90
52867;DHT22;38739;53.324;6.862;2023-05-07T05:50:17;10.10;99.90
52867;DHT22;38739;53.324;6.862;2023-05-07T05:52:42;10.10;99.90
52867;DHT22;38739;53.324;6.862;2023-05-07T05:55:08;10.10;99.90
52867;DHT22;38739;53.324;6.862;2023-05-07T05:57:34;10.00;99.90
52867;DHT22;38739;53.324;6.862;2023-05-07T06:00:01;10.00;99.90
52867;DHT22;38739;53.324;6.862;2023-05-07T06:02:28;10.10;99.90
52867;DHT22;38739;53.324;6.862;2023-05-07T06:04:54;10.00;99.90
52867;DHT22;38739;53.324;6.862;2023-05-07T06:07:19;10.00;99.90
52867;DHT22;38739;53.324;6.862;2023-05-07T06:09:45;10.00;99.90
52867;DHT22;38739;53.324;6.862;2023-05-07T06:12:11;10.00;99.90
52867;DHT22;38739;53.324;6.862;2023-05-07T06:14:37;10.00;99.90
52867;DHT22;38739;53.324;6.862;2023-05-07T06:17:03;10.00;99.90
52867;DHT22;38739;53.324;6.862;2023-05-07T06:19:29;10.00;99.90
52867;DHT22;38739;53.324;6.862;2023-05-07T06:21:54;10.10;99.90
52867;DHT22;38739;53.324;6.862;2023-05-07T06:24:22;10.10;99.90
52867;DHT22;38739;53.324;6.862;2023-05-07T06:26:48;10.10;99.90
52867;DHT22;38739;53.324;6.862;2023-05-07T06:29:14;10.10;99.90
52867;DHT22;38739;53.324;6.862;2023-05-07T06:31:39;10.10;99.90
52867;DHT22;38739;53.324;6.862;2023-05-07T06:34:05;10.10;99.90
52867;DHT22;38739;53.324;6.862;2023-05-07T06:36:31;10.20;99.90
52867;DHT22;38739;53.324;6.862;2023-05-07T06:38:57;10.20;99.90
52867;DHT22;38739;53.324;6.862;2023-05-07T06:41:22;10.20;99.90
52867;DHT22;38739;53.324;6.862;2023-05-07T06:43:48;10.20;99.90
52867;DHT22;38739;53.324;6.862;2023-05-07T06:46:14;10.20;99.90
52867;DHT22;38739;53.324;6.862;2023-05-07T06:48:40;10.20;99.90
52867;DHT22;38739;53.324;6.862;2023-05-07T06:51:06;10.20;99.90
52867;DHT22;38739;53.324;6.862;2023-05-07T06:53:31;10.20;99.90
52867;DHT22;38739;53.324;6.862;2023-05-07T06:55:57;10.20;99.90
52867;DHT22;38739;53.324;6.862;2023-05-07T06:58:23;10.20;99.90
52867;DHT22;38739;53.324;6.862;2023-05-07T07:00:48;10.30;99.90
52867;DHT22;38739;53.324;6.862;2023-05-07T07:03:14;10.30;99.90
52867;DHT22;38739;53.324;6.862;2023-05-07T07:05:41;10.30;99.90
52867;DHT22;38739;53.324;6.862;2023-05-07T07:08:07;10.30;99.90
52867;DHT22;38739;53.324;6.862;2023-05-07T07:10:33;10.40;99.90
52867;DHT22;38739;53.324;6.862;2023-05-07T07:12:58;10.40;99.90
52867;DHT22;38739;53.324;6.862;2023-05-07T07:15:24;10.40;99.90
52867;DHT22;38739;53.324;6.862;2023-05-07T07:17:50;10.40;99.90
52867;DHT22;38739;53.324;6.862;2023-05-07T07:20:16;10.50;99.90
52867;DHT22;38739;53.324;6.862;2023-05-07T07:22:42;10.50;99.90
52867;DHT22;38739;53.324;6.862;2023-05-07T07:25:08;10.50;99.90
52867;DHT22;38739;53.324;6.862;2023-05-07T07:27:34;10.50;99.90
52867;DHT22;38739;53.324;6.862;2023-05-07T07:30:00;10.60;99.90
52867;DHT22;38739;53.324;6.862;2023-05-07T07:32:26;10.60;99.90
52867;DHT22;38739;53.324;6.862;2023-05-07T07:34:51;10.70;99.90
52867;DHT22;38739;53.324;6.862;2023-05-07T07:37:17;10.70;99.90
52867;DHT22;38739;53.324;6.862;2023-05-07T07:39:43;10.70;99.90
52867;DHT22;38739;53.324;6.862;2023-05-07T07:42:08;10.70;99.90
52867;DHT22;38739;53.324;6.862;2023-05-07T07:44:34;10.70;99.90
52867;DHT22;38739;53.324;6.862;2023-05-07T07:47:00;10.80;99.90
52867;DHT22;38739;53.324;6.862;2023-05-07T07:49:26;10.80;99.90
52867;DHT22;38739;53.324;6.862;2023-05-07T07:51:52;10.90;99.90
52867;DHT22;38739;53.324;6.862;2023-05-07T07:54:18;10.90;99.90
52867;DHT22;38739;53.324;6.862;2023-05-07T07:56:43;10.90;99.90
52867;DHT22;38739;53.324;6.862;2023-05-07T07:59:09;10.90;99.90
52867;DHT22;38739;53.324;6.862;2023-05-07T08:01:35;10.90;99.90
52867;DHT22;38739;53.324;6.862;2023-05-07T08:04:00;10.90;99.90
52867;DHT22;38739;53.324;6.862;2023-05-07T08:06:28;10.90;99.90
52867;DHT22;38739;53.324;6.862;2023-05-07T08:08:54;10.90;99.90
52867;DHT22;38739;53.324;6.862;2023-05-07T08:11:20;10.90;99.90
52867;DHT22;38739;53.324;6.862;2023-05-07T08:13:46;11.00;99.90
52867;DHT22;38739;53.324;6.862;2023-05-07T08:16:13;11.00;99.90
52867;DHT22;38739;53.324;6.862;2023-05-07T08:18:38;11.10;99.90
52867;DHT22;38739;53.324;6.862;2023-05-07T08:21:04;11.10;99.90
52867;DHT22;38739;53.324;6.862;2023-05-07T08:23:30;11.20;99.90
52867;DHT22;38739;53.324;6.862;2023-05-07T08:25:56;11.30;99.90
52867;DHT22;38739;53.324;6.862;2023-05-07T08:28:21;11.30;99.90
52867;DHT22;38739;53.324;6.862;2023-05-07T08:30:47;11.30;99.90
52867;DHT22;38739;53.324;6.862;2023-05-07T08:33:13;11.40;99.90
52867;DHT22;38739;53.324;6.862;2023-05-07T08:35:39;11.40;99.90
52867;DHT22;38739;53.324;6.862;2023-05-07T08:38:04;11.50;99.90
52867;DHT22;38739;53.324;6.862;2023-05-07T08:40:34;11.60;99.90
52867;DHT22;38739;53.324;6.862;2023-05-07T08:43:02;11.70;99.90
52867;DHT22;38739;53.324;6.862;2023-05-07T08:45:30;11.70;99.90
52867;DHT22;38739;53.324;6.862;2023-05-07T08:47:59;11.70;99.90
52867;DHT22;38739;53.324;6.862;2023-05-07T08:50:25;11.80;99.90
52867;DHT22;38739;53.324;6.862;2023-05-07T08:52:51;11.80;99.90
52867;DHT22;38739;53.324;6.862;2023-05-07T08:55:17;11.80;99.90
52867;DHT22;38739;53.324;6.862;2023-05-07T08:57:43;11.90;99.90
52867;DHT22;38739;53.324;6.862;2023-05-07T09:00:10;11.90;99.90
52867;DHT22;38739;53.324;6.862;2023-05-07T09:02:36;12.00;99.90
52867;DHT22;38739;53.324;6.862;2023-05-07T09:05:03;12.10;99.90
52867;DHT22;38739;53.324;6.862;2023-05-07T09:07:30;12.20;99.90
52867;DHT22;38739;53.324;6.862;2023-05-07T09:09:55;12.20;99.90
52867;DHT22;38739;53.324;6.862;2023-05-07T09:12:22;12.20;99.90
52867;DHT22;38739;53.324;6.862;2023-05-07T09:14:49;12.20;99.90
52867;DHT22;38739;53.324;6.862;2023-05-07T09:17:18;12.30;99.90
52867;DHT22;38739;53.324;6.862;2023-05-07T09:19:47;12.30;99.90
52867;DHT22;38739;53.324;6.862;2023-05-07T09:22:13;12.40;99.90
52867;DHT22;38739;53.324;6.862;2023-05-07T09:24:39;12.40;99.90
52867;DHT22;38739;53.324;6.862;2023-05-07T09:27:06;12.50;99.90
52867;DHT22;38739;53.324;6.862;2023-05-07T09:29:32;12.50;99.90
52867;DHT22;38739;53.324;6.862;2023-05-07T09:32:08;12.60;99.90
52867;DHT22;38739;53.324;6.862;2023-05-07T09:34:34;12.60;99.90
52867;DHT22;38739;53.324;6.862;2023-05-07T09:37:04;12.70;99.90
52867;DHT22;38739;53.324;6.862;2023-05-07T09:39:47;12.80;99.90
52867;DHT22;38739;53.324;6.862;2023-05-07T09:42:13;12.90;99.90
52867;DHT22;38739;53.324;6.862;2023-05-07T09:44:43;13.10;99.90
52867;DHT22;38739;53.324;6.862;2023-05-07T09:47:10;13.10;99.90
52867;DHT22;38739;53.324;6.862;2023-05-07T09:49:39;13.20;99.90
52867;DHT22;38739;53.324;6.862;2023-05-07T09:52:06;13.30;99.90
52867;DHT22;38739;53.324;6.862;2023-05-07T09:54:35;13.40;99.90
52867;DHT22;38739;53.324;6.862;2023-05-07T09:57:04;13.50;99.90
52867;DHT22;38739;53.324;6.862;2023-05-07T09:59:32;13.50;99.90
52867;DHT22;38739;53.324;6.862;2023-05-07T10:01:59;13.60;99.90
52867;DHT22;38739;53.324;6.862;2023-05-07T10:04:26;13.70;99.90
52867;DHT22;38739;53.324;6.862;2023-05-07T10:06:53;13.80;99.90
52867;DHT22;38739;53.324;6.862;2023-05-07T10:09:20;13.80;99.90
52867;DHT22;38739;53.324;6.862;2023-05-07T10:11:46;13.90;99.90
52867;DHT22;38739;53.324;6.862;2023-05-07T10:14:13;14.00;99.90
52867;DHT22;38739;53.324;6.862;2023-05-07T10:16:40;14.20;99.90
52867;DHT22;38739;53.324;6.862;2023-05-07T10:19:08;14.40;99.90
52867;DHT22;38739;53.324;6.862;2023-05-07T10:21:42;14.50;99.90
52867;DHT22;38739;53.324;6.862;2023-05-07T10:24:15;14.60;99.90
52867;DHT22;38739;53.324;6.862;2023-05-07T10:26:43;14.50;99.90
52867;DHT22;38739;53.324;6.862;2023-05-07T10:32:11;14.50;99.90
52867;DHT22;38739;53.324;6.862;2023-05-07T10:34:42;14.60;99.90
52867;DHT22;38739;53.324;6.862;2023-05-07T10:37:09;14.80;99.90
52867;DHT22;38739;53.324;6.862;2023-05-07T10:39:36;14.90;99.90
52867;DHT22;38739;53.324;6.862;2023-05-07T10:42:12;14.90;99.90
52867;DHT22;38739;53.324;6.862;2023-05-07T10:44:38;15.00;99.90
52867;DHT22;38739;53.324;6.862;2023-05-07T10:52:22;15.20;99.90
52867;DHT22;38739;53.324;6.862;2023-05-07T10:57:42;15.40;99.90
52867;DHT22;38739;53.324;6.862;2023-05-07T11:05:29;15.80;99.90
52867;DHT22;38739;53.324;6.862;2023-05-07T11:07:59;15.90;99.90
52867;DHT22;38739;53.324;6.862;2023-05-07T11:13:14;15.90;99.90
52867;DHT22;38739;53.324;6.862;2023-05-07T11:15:42;15.80;99.90
52867;DHT22;38739;53.324;6.862;2023-05-07T11:18:08;15.80;99.90
52867;DHT22;38739;53.324;6.862;2023-05-07T11:20:55;15.70;99.90
52867;DHT22;38739;53.324;6.862;2023-05-07T11:26:06;15.50;99.90
52867;DHT22;38739;53.324;6.862;2023-05-07T11:28:37;15.50;99.90
52867;DHT22;38739;53.324;6.862;2023-05-07T11:31:03;15.70;99.90
52867;DHT22;38739;53.324;6.862;2023-05-07T11:33:30;15.90;99.90
52867;DHT22;38739;53.324;6.862;2023-05-07T11:35:57;16.20;99.90
52867;DHT22;38739;53.324;6.862;2023-05-07T11:38:23;16.30;99.90
52867;DHT22;38739;53.324;6.862;2023-05-07T11:40:55;16.50;99.90
52867;DHT22;38739;53.324;6.862;2023-05-07T11:43:21;16.60;99.90
52867;DHT22;38739;53.324;6.862;2023-05-07T11:45:48;16.50;99.90
52867;DHT22;38739;53.324;6.862;2023-05-07T11:48:14;16.80;99.90
52867;DHT22;38739;53.324;6.862;2023-05-07T11:51:01;17.20;99.90
52867;DHT22;38739;53.324;6.862;2023-05-07T11:53:33;17.60;99.90
52867;DHT22;38739;53.324;6.862;2023-05-07T11:56:00;18.10;99.90
52867;DHT22;38739;53.324;6.862;2023-05-07T11:58:26;18.40;99.90
52867;DHT22;38739;53.324;6.862;2023-05-07T12:00:53;18.40;99.90
52867;DHT22;38739;53.324;6.862;2023-05-07T12:03:20;18.60;99.90
52867;DHT22;38739;53.324;6.862;2023-05-07T12:05:47;18.70;99.90
52867;DHT22;38739;53.324;6.862;2023-05-07T12:08:19;18.90;99.90
52867;DHT22;38739;53.324;6.862;2023-05-07T12:10:47;19.10;99.90
52867;DHT22;38739;53.324;6.862;2023-05-07T12:13:21;19.20;99.90
52867;DHT22;38739;53.324;6.862;2023-05-07T12:15:53;19.00;99.90
52867;DHT22;38739;53.324;6.862;2023-05-07T12:18:20;19.20;99.90
52867;DHT22;38739;53.324;6.862;2023-05-07T12:20:47;19.20;99.90
52867;DHT22;38739;53.324;6.862;2023-05-07T12:23:13;19.40;99.90
52867;DHT22;38739;53.324;6.862;2023-05-07T12:25:40;19.80;99.90
52867;DHT22;38739;53.324;6.862;2023-05-07T12:28:15;20.00;99.90
52867;DHT22;38739;53.324;6.862;2023-05-07T12:30:47;20.00;99.90
52867;DHT22;38739;53.324;6.862;2023-05-07T12:33:17;20.20;99.90
52867;DHT22;38739;53.324;6.862;2023-05-07T12:35:44;20.10;99.90
52867;DHT22;38739;53.324;6.862;2023-05-07T12:38:14;19.80;99.90
52867;DHT22;38739;53.324;6.862;2023-05-07T12:43:15;19.40;99.90
52867;DHT22;38739;53.324;6.862;2023-05-07T12:45:43;19.50;99.90
52867;DHT22;38739;53.324;6.862;2023-05-07T12:48:10;19.60;99.90
52867;DHT22;38739;53.324;6.862;2023-05-07T12:50:36;19.60;99.90
52867;DHT22;38739;53.324;6.862;2023-05-07T12:53:04;19.50;99.90
52867;DHT22;38739;53.324;6.862;2023-05-07T12:55:32;19.70;99.90
52867;DHT22;38739;53.324;6.862;2023-05-07T12:58:00;20.10;99.90
52867;DHT22;38739;53.324;6.862;2023-05-07T13:00:37;20.40;99.90
52867;DHT22;38739;53.324;6.862;2023-05-07T13:03:03;20.70;99.90
52867;DHT22;38739;53.324;6.862;2023-05-07T13:05:29;20.90;99.90
52867;DHT22;38739;53.324;6.862;2023-05-07T13:07:58;21.10;99.90
52867;DHT22;38739;53.324;6.862;2023-05-07T13:10:25;21.20;99.90
52867;DHT22;38739;53.324;6.862;2023-05-07T13:12:51;21.40;99.90
52867;DHT22;38739;53.324;6.862;2023-05-07T13:15:17;21.50;99.90
52867;DHT22;38739;53.324;6.862;2023-05-07T13:17:43;21.90;99.90
52867;DHT22;38739;53.324;6.862;2023-05-07T13:20:09;22.00;99.90
52867;DHT22;38739;53.324;6.862;2023-05-07T13:22:36;22.10;99.90
52867;DHT22;38739;53.324;6.862;2023-05-07T13:25:01;21.90;99.90
52867;DHT22;38739;53.324;6.862;2023-05-07T13:27:27;21.90;99.90
52867;DHT22;38739;53.324;6.862;2023-05-07T13:29:53;22.30;99.90
52867;DHT22;38739;53.324;6.862;2023-05-07T13:32:18;22.50;99.90
52867;DHT22;38739;53.324;6.862;2023-05-07T13:34:44;22.90;98.40
52867;DHT22;38739;53.324;6.862;2023-05-07T13:37:10;22.80;98.00
52867;DHT22;38739;53.324;6.862;2023-05-07T13:39:36;22.90;96.90
52867;DHT22;38739;53.324;6.862;2023-05-07T13:42:02;23.10;96.90
52867;DHT22;38739;53.324;6.862;2023-05-07T13:44:27;22.90;97.00
52867;DHT22;38739;53.324;6.862;2023-05-07T13:46:53;23.10;96.40
52867;DHT22;38739;53.324;6.862;2023-05-07T13:49:19;23.10;95.90
52867;DHT22;38739;53.324;6.862;2023-05-07T13:51:44;23.20;96.10
52867;DHT22;38739;53.324;6.862;2023-05-07T13:54:10;23.40;95.70
52867;DHT22;38739;53.324;6.862;2023-05-07T13:56:37;23.80;95.10
52867;DHT22;38739;53.324;6.862;2023-05-07T13:59:02;24.30;95.60
52867;DHT22;38739;53.324;6.862;2023-05-07T14:01:28;23.70;92.30
52867;DHT22;38739;53.324;6.862;2023-05-07T14:03:55;23.50;92.80
52867;DHT22;38739;53.324;6.862;2023-05-07T14:06:21;23.50;92.80
52867;DHT22;38739;53.324;6.862;2023-05-07T14:08:47;23.40;92.60
52867;DHT22;38739;53.324;6.862;2023-05-07T14:11:13;23.40;93.50
52867;DHT22;38739;53.324;6.862;2023-05-07T14:13:38;23.30;93.20
52867;DHT22;38739;53.324;6.862;2023-05-07T14:16:04;23.40;93.40
52867;DHT22;38739;53.324;6.862;2023-05-07T14:18:30;23.50;94.10
52867;DHT22;38739;53.324;6.862;2023-05-07T14:20:56;23.20;93.30
52867;DHT22;38739;53.324;6.862;2023-05-07T14:23:21;22.90;93.50
52867;DHT22;38739;53.324;6.862;2023-05-07T14:25:52;22.80;93.80
52867;DHT22;38739;53.324;6.862;2023-05-07T14:28:18;22.70;94.10
52867;DHT22;38739;53.324;6.862;2023-05-07T14:30:44;23.00;94.90
52867;DHT22;38739;53.324;6.862;2023-05-07T14:33:10;23.10;94.20
52867;DHT22;38739;53.324;6.862;2023-05-07T14:35:35;23.10;93.50
52867;DHT22;38739;53.324;6.862;2023-05-07T14:38:01;22.80;93.70
52867;DHT22;38739;53.324;6.862;2023-05-07T14:40:27;23.10;94.60
52867;DHT22;38739;53.324;6.862;2023-05-07T14:42:52;23.10;94.10
52867;DHT22;38739;53.324;6.862;2023-05-07T14:45:18;23.00;94.20
52867;DHT22;38739;53.324;6.862;2023-05-07T14:47:44;23.40;95.50
52867;DHT22;38739;53.324;6.862;2023-05-07T14:50:10;23.40;93.60
52867;DHT22;38739;53.324;6.862;2023-05-07T14:52:35;23.30;93.30
52867;DHT22;38739;53.324;6.862;2023-05-07T14:55:01;23.20;94.10
52867;DHT22;38739;53.324;6.862;2023-05-07T14:57:27;23.10;93.20
52867;DHT22;38739;53.324;6.862;2023-05-07T14:59:52;22.60;93.30
52867;DHT22;38739;53.324;6.862;2023-05-07T15:02:18;22.50;94.10
52867;DHT22;38739;53.324;6.862;2023-05-07T15:04:44;22.30;94.70
52867;DHT22;38739;53.324;6.862;2023-05-07T15:07:14;22.00;94.90
52867;DHT22;38739;53.324;6.862;2023-05-07T15:09:41;21.90;95.70
52867;DHT22;38739;53.324;6.862;2023-05-07T15:12:10;22.00;96.70
52867;DHT22;38739;53.324;6.862;2023-05-07T15:14:36;22.00;96.40
52867;DHT22;38739;53.324;6.862;2023-05-07T15:17:02;21.90;96.30
52867;DHT22;38739;53.324;6.862;2023-05-07T15:19:27;21.80;96.80
52867;DHT22;38739;53.324;6.862;2023-05-07T15:21:56;21.50;96.40
52867;DHT22;38739;53.324;6.862;2023-05-07T15:24:23;21.30;98.00
52867;DHT22;38739;53.324;6.862;2023-05-07T15:26:49;21.30;98.50
52867;DHT22;38739;53.324;6.862;2023-05-07T15:29:15;21.10;98.30
52867;DHT22;38739;53.324;6.862;2023-05-07T15:31:40;20.90;99.20
52867;DHT22;38739;53.324;6.862;2023-05-07T15:34:06;20.90;99.80
52867;DHT22;38739;53.324;6.862;2023-05-07T15:36:32;20.70;99.60
52867;DHT22;38739;53.324;6.862;2023-05-07T15:38:57;20.50;99.90
52867;DHT22;38739;53.324;6.862;2023-05-07T15:41:24;20.50;99.90
52867;DHT22;38739;53.324;6.862;2023-05-07T15:43:51;20.40;99.90
52867;DHT22;38739;53.324;6.862;2023-05-07T15:46:22;20.30;99.90
52867;DHT22;38739;53.324;6.862;2023-05-07T15:48:49;20.20;99.90
52867;DHT22;38739;53.324;6.862;2023-05-07T15:51:15;20.10;99.90